Latest Weather Observations for Bradshaw-Angallari Valley (Defence)

IDD60801

Issued at 6:51 pm CST Tuesday 23 October 2018 (issued every 10 minutes, with the page automatically refreshed every 10 minutes)

About weather observations | Map of weather stations | Latest weather observations for NT | Other Formats
Station Details ID: 014808 Name: BRADSHAW - ANGALLARI VALLEY (DEFENCE) Lat: -15.44 Lon: 130.57 Height: 60.0 m
Data from the previous 72 hours. | See also: Recent months at Bradshaw-Angallari Valley (Defence)
Date/Time
CST
Temp
°C
App
Temp
°C
Dew
Point
°C
Rel
Hum
%
Delta-T
°C
Wind Press
QNH
hPa
Press
MSL
hPa
Rain since
9am
mm
Dir  Spd
km/h
Gust
km/h
Spd
kts
Gust
kts
23/06:30pm 29.0 29.7 20.4 59 5.7 W 17 28 9 15 1007.1 1006.6 1.4
23/06:00pm 27.7 29.2 22.0 71 3.8 W 17 24 9 13 1008.4 1007.9 1.2
23/05:50pm 29.3 31.6 19.9 57 6.2 SW 7 24 4 13 1008.6 1008.1 0.8
23/05:30pm 34.6 35.0 16.4 33 11.6 NNE 9 24 5 13 1007.6 1007.1 0.0
23/05:00pm 37.4 36.8 14.7 26 14.2 N 11 20 6 11 1006.2 1005.7 0.0
23/04:30pm 39.4 39.2 15.7 24 15.2 NW 11 17 6 9 1005.8 1005.3 0.0
23/04:00pm 40.0 39.5 14.9 22 15.9 NNW 11 17 6 9 1006.0 1005.5 0.0
23/03:30pm 39.9 40.3 14.8 22 15.9 WNW 6 13 3 7 1006.3 1005.8 0.0
23/03:00pm 39.2 39.7 14.9 23 15.4 WNW 6 15 3 8 1006.7 1006.2 0.0
23/02:30pm 39.8 40.2 14.8 23 15.8 NW 6 11 3 6 1007.0 1006.5 0.0
23/02:00pm 39.0 39.6 15.4 25 15.0 W 6 9 3 5 1007.4 1006.9 0.0
23/01:30pm 38.9 38.9 15.3 25 15.0 NW 9 15 5 8 1008.0 1007.5 0.0
23/01:00pm 38.9 39.5 15.3 25 15.0 NNE 6 9 3 5 1008.6 1008.1 0.0
23/12:30pm 38.4 38.9 15.5 26 14.6 W 7 11 4 6 1009.2 1008.7 0.0
23/12:00pm 38.0 38.2 15.7 26 14.2 W 9 19 5 10 1009.7 1009.2 0.0
23/11:30am 37.3 37.9 15.7 27 13.7 NNW 7 17 4 9 1010.1 1009.6 0.0
23/11:00am 36.1 36.7 15.8 30 12.9 NW 7 13 4 7 1010.6 1010.1 0.0
23/10:30am 36.0 37.1 17.2 33 12.1 WNW 7 13 4 7 1010.9 1010.4 0.0
23/10:00am 34.1 36.2 19.0 41 9.9 NW 6 11 3 6 1011.0 1010.5 0.0
23/09:30am 32.8 35.5 20.3 47 8.3 WNW 6 9 3 5 1011.2 1010.7 0.0
23/09:00am 31.5 35.0 21.9 56 6.5 WNW 6 9 3 5 1011.2 1010.7 0.0
23/08:30am 30.2 34.0 22.4 63 5.3 NW 6 9 3 5 1011.2 1010.7 0.0
23/08:00am 29.5 33.5 22.7 67 4.6 NNW 6 9 3 5 1011.2 1010.7 0.0
23/07:30am 28.8 32.8 22.8 70 4.1 NE 6 9 3 5 1010.9 1010.4 0.0
23/07:00am 27.7 31.6 22.6 74 3.5 NE 6 9 3 5 1010.5 1010.0 0.0
23/06:30am 27.1 30.8 22.3 75 3.2 NE 6 9 3 5 1010.1 1009.6 0.0
23/06:00am 27.2 32.0 22.8 77 3.0 N 2 4 1 2 1010.2 1009.7 0.0
23/05:30am 27.3 31.8 22.9 77 3.0 N 4 4 2 2 1009.7 1009.2 0.0
23/05:00am 27.7 31.9 23.1 76 3.1 NNW 6 9 3 5 1009.4 1008.9 0.0
23/04:30am 28.0 32.2 23.4 76 3.2 N 7 13 4 7 1008.8 1008.3 0.0
23/04:00am 28.0 32.7 23.4 76 3.2 NE 4 7 2 4 1008.8 1008.3 0.0
23/03:30am 27.7 32.1 23.5 78 2.9 NE 6 7 3 4 1008.8 1008.3 0.0
23/03:00am 27.5 32.4 23.7 80 2.6 E 4 6 2 3 1008.9 1008.4 0.0
23/02:30am 27.7 33.4 23.7 79 2.8 CALM 0 0 0 0 1009.3 1008.8 0.0
23/02:00am 27.9 33.1 23.5 77 3.0 WNW 2 6 1 3 1009.6 1009.1 0.0
23/01:30am 28.0 30.9 22.5 72 3.7 WNW 11 17 6 9 1009.4 1008.9 0.0
23/01:00am 28.4 31.9 22.2 69 4.2 W 7 13 4 7 1009.9 1009.4 0.0
23/12:30am 28.8 32.7 22.5 68 4.3 WSW 6 9 3 5 1010.5 1010.0 0.0
23/12:00am 29.0 32.1 22.2 66 4.6 SW 9 17 5 9 1010.7 1010.2 0.0
 
Date/Time
CST
Temp
°C
App
Temp
°C
Dew
Point
°C
Rel
Hum
%
Delta-T
°C
Wind Press
QNH
hPa
Press
MSL
hPa
Rain since
9am
mm
Dir  Spd
km/h
Gust
km/h
Spd
kts
Gust
kts
22/11:30pm 28.7 32.4 21.5 65 4.8 S 4 7 2 4 1010.4 1009.9 0.0
22/11:00pm 28.0 31.7 21.5 67 4.3 S 4 6 2 3 1010.4 1009.9 0.0
22/10:30pm 28.0 32.0 22.0 70 4.0 SE 4 4 2 2 1010.4 1009.9 0.0
22/10:00pm 28.3 32.4 22.3 70 4.1 S 4 6 2 3 1010.5 1010.0 0.0
22/09:30pm 28.6 32.3 21.4 65 4.8 S 4 6 2 3 1010.3 1009.8 0.0
22/09:00pm 28.9 33.2 21.1 62 5.2 CALM 0 0 0 0 1010.0 1009.5 0.0
22/08:30pm 29.2 32.6 20.9 61 5.5 SSE 4 6 2 3 1009.5 1009.0 0.0
22/08:00pm 29.6 32.7 20.2 57 6.2 SW 4 6 2 3 1009.0 1008.5 0.0
22/07:30pm 29.8 33.2 20.1 56 6.4 S 2 4 1 2 1008.9 1008.4 0.0
22/07:00pm 30.1 32.6 19.8 54 6.8 NNW 6 7 3 4 1008.9 1008.4 0.0
22/06:30pm 30.3 32.9 20.5 55 6.5 WNW 7 13 4 7 1008.6 1008.1 0.0
22/06:00pm 30.5 34.0 20.4 54 6.7 W 2 4 1 2 1008.1 1007.6 0.0
22/05:30pm 30.6 33.7 20.2 53 6.9 NNW 4 7 2 4 1008.0 1007.5 0.0
22/05:00pm 30.5 33.4 19.8 52 7.0 SW 4 7 2 4 1007.8 1007.3 0.0
22/04:30pm 29.8 33.0 20.6 57 6.1 W 4 6 2 3 1008.1 1007.6 0.0
22/04:00pm 29.9 32.6 20.7 57 6.1 WSW 7 13 4 7 1007.8 1007.3 0.0
22/03:30pm 29.5 32.5 21.2 61 5.6 W 7 15 4 8 1008.2 1007.7 0.0
22/03:00pm 29.6 31.2 21.5 61 5.5 WSW 15 28 8 15 1008.6 1008.1 0.0
22/02:45pm 31.0 31.1 20.3 53 7.1 WSW 20 43 11 23 1008.4 1007.9 0.0
22/02:30pm 36.0 38.7 18.6 36 11.5 ESE 2 4 1 2 1008.0 1007.5 0.0
22/02:00pm 36.4 38.3 18.5 35 11.8 ESE 6 11 3 6 1008.1 1007.6 0.0
22/01:30pm 36.5 38.6 19.0 35 11.6 SSE 6 9 3 5 1008.9 1008.4 0.0
22/01:00pm 37.0 39.5 19.0 34 11.9 SSW 4 11 2 6 1009.6 1009.1 0.0
22/12:30pm 36.4 39.1 19.4 37 11.3 NNE 4 9 2 5 1010.5 1010.0 0.0
22/12:00pm 35.9 39.0 21.0 42 10.1 E 6 11 3 6 1011.0 1010.5 0.0
22/11:30am 34.4 37.7 20.7 44 9.2 S 4 7 2 4 1011.7 1011.2 0.0
22/11:00am 33.6 37.1 21.1 48 8.4 SSE 4 9 2 5 1012.1 1011.6 0.0
22/10:30am 32.9 36.7 21.7 51 7.6 N 4 7 2 4 1012.5 1012.1 0.0
22/10:00am 31.3 34.9 22.0 57 6.3 NW 6 9 3 5 1012.8 1012.4 0.0
22/09:30am 30.0 34.6 22.4 63 5.2 NNW 2 6 1 3 1013.0 1012.6 0.0
22/09:00am 29.4 33.7 22.6 67 4.6 NW 4 6 2 3 1013.1 1012.7 0.0
22/08:30am 29.2 33.7 22.9 69 4.3 NW 4 6 2 3 1012.9 1012.5 0.0
22/08:00am 28.7 33.2 21.5 65 4.8 CALM 0 2 0 1 1012.6 1012.2 0.0
22/07:30am 27.6 32.3 21.9 71 3.8 CALM 0 0 0 0 1012.5 1012.1 0.0
22/07:00am 27.3 32.2 22.3 74 3.4 CALM 0 0 0 0 1011.8 1011.3 0.0
22/06:30am 27.2 31.9 21.9 73 3.6 CALM 0 2 0 1 1011.3 1010.8 0.0
22/06:00am 26.8 32.4 23.5 82 2.3 CALM 0 0 0 0 1010.7 1010.2 0.0
22/05:30am 26.5 31.8 23.0 81 2.4 CALM 0 0 0 0 1010.0 1009.5 0.0
22/05:00am 26.3 31.4 22.6 80 2.5 CALM 0 0 0 0 1009.6 1009.1 0.0
22/04:30am 26.4 31.6 22.9 81 2.4 CALM 0 0 0 0 1009.3 1008.8 0.0
22/04:00am 26.7 31.3 22.5 78 2.8 SSW 2 4 1 2 1009.1 1008.6 0.0
22/03:30am 26.7 31.0 21.9 75 3.2 WSW 2 6 1 3 1009.2 1008.7 0.0
22/03:00am 26.9 31.4 22.3 76 3.1 W 2 4 1 2 1009.2 1008.7 0.0
22/02:30am 27.1 31.5 22.1 74 3.4 SW 2 4 1 2 1009.4 1008.9 0.0
22/02:00am 27.1 32.1 22.5 76 3.1 CALM 0 0 0 0 1009.5 1009.0 0.0
22/01:30am 27.2 31.8 21.7 72 3.7 CALM 0 2 0 1 1009.8 1009.3 0.0
22/01:00am 27.7 32.3 21.7 70 4.0 CALM 0 0 0 0 1010.0 1009.5 0.0
22/12:30am 28.6 32.4 20.9 63 5.1 NW 2 4 1 2 1010.3 1009.8 0.0
22/12:00am 28.9 31.7 20.4 60 5.6 WSW 6 7 3 4 1010.5 1010.0 0.0
 
Date/Time
CST
Temp
°C
App
Temp
°C
Dew
Point
°C
Rel
Hum
%
Delta-T
°C
Wind Press
QNH
hPa
Press
MSL
hPa
Rain since
9am
mm
Dir  Spd
km/h
Gust
km/h
Spd
kts
Gust
kts
21/11:30pm 29.2 31.7 19.8 57 6.2 WSW 6 11 3 6 1010.7 1010.2 0.0
21/11:00pm 29.6 31.8 19.6 55 6.5 WSW 7 13 4 7 1011.0 1010.5 0.0
21/10:30pm 30.0 32.3 19.4 53 6.9 WSW 6 9 3 5 1010.8 1010.3 0.0
21/10:00pm 30.4 32.4 19.1 50 7.4 WSW 7 11 4 6 1010.5 1010.0 0.0
21/09:30pm 30.6 32.8 19.6 51 7.2 SW 7 11 4 6 1010.3 1009.8 0.0
21/09:00pm 31.0 33.2 19.7 51 7.4 WSW 7 11 4 6 1010.0 1009.5 0.0
21/08:30pm 31.6 33.6 19.2 47 8.1 WSW 7 13 4 7 1009.7 1009.2 0.0
21/08:00pm 32.2 33.4 19.1 45 8.6 WSW 11 17 6 9 1009.4 1008.9 0.0
21/07:30pm 33.0 35.0 19.1 43 9.1 WSW 7 13 4 7 1009.0 1008.5 0.0
21/07:00pm 33.8 34.3 18.3 39 10.1 W 13 22 7 12 1008.6 1008.1 0.0
21/06:30pm 35.3 35.6 18.0 36 11.3 W 13 24 7 13 1008.2 1007.7 0.0
21/06:00pm 37.0 37.9 16.5 29 13.2 WNW 7 11 4 6 1007.6 1007.1 0.0
21/05:30pm 37.6 37.9 16.0 28 13.8 WNW 9 13 5 7 1007.1 1006.6 0.0
21/05:00pm 38.5 39.6 15.6 26 14.6 N 4 9 2 5 1007.1 1006.6 0.0
21/04:30pm 39.3 40.5 15.0 24 15.4 NW 2 7 1 4 1007.3 1006.8 0.0
21/04:00pm 38.5 38.5 16.2 27 14.3 WNW 11 20 6 11 1007.6 1007.1 0.0
21/03:30pm 38.0 37.4 15.7 26 14.2 N 13 19 7 10 1007.8 1007.3 0.0
21/03:00pm 39.2 40.2 16.8 27 14.5 WNW 7 15 4 8 1008.4 1007.9 0.0
21/02:30pm 37.5 38.7 15.9 28 13.8 WNW 4 9 2 5 1008.8 1008.3 0.0
21/02:00pm 38.6 39.2 16.8 27 14.1 NW 9 20 5 11 1009.3 1008.8 0.0
21/01:30pm 37.3 38.3 16.3 29 13.5 NNW 6 13 3 7 1010.0 1009.5 0.0
21/01:00pm 37.6 37.6 17.1 30 13.3 NNW 13 20 7 11 1010.6 1010.1 0.0
21/12:30pm 37.4 38.2 16.4 29 13.5 NW 7 15 4 8 1011.2 1010.7 0.0
21/12:00pm 36.5 37.0 16.6 30 12.8 NW 9 20 5 11 1011.9 1011.4 0.0
21/11:30am 35.4 37.1 17.1 33 11.8 SSE 4 13 2 7 1012.6 1012.2 0.0
21/11:00am 34.9 36.8 18.5 38 10.7 WNW 6 13 3 7 1012.9 1012.5 0.0
21/10:30am 34.0 36.4 20.0 43 9.3 SSW 7 13 4 7 1013.3 1012.9 0.0
21/10:00am 33.4 35.7 19.8 44 9.0 NW 7 15 4 8 1013.7 1013.3 0.0
21/09:30am 31.8 34.4 20.1 50 7.8 WNW 6 13 3 7 1013.6 1013.2 0.0
21/09:00am 30.9 34.0 20.2 53 7.1 WNW 4 7 2 4 1013.7 1013.3 0.2
21/08:30am 30.2 33.5 20.7 56 6.3 NNE 4 6 2 3 1013.6 1013.2 0.2
21/08:00am 29.6 32.8 21.3 61 5.6 ENE 6 7 3 4 1013.4 1013.0 0.2
21/07:30am 28.3 31.8 21.8 68 4.4 ENE 6 11 3 6 1012.8 1012.4 0.2
21/07:00am 27.0 30.2 21.3 71 3.8 ENE 6 9 3 5 1012.3 1011.8 0.2
21/06:30am 26.7 29.7 20.8 70 3.9 NE 6 9 3 5 1011.8 1011.3 0.2
21/06:00am 26.6 29.9 20.7 70 3.9 NE 4 7 2 4 1011.6 1011.1 0.2
21/05:30am 26.8 30.0 20.4 68 4.2 NE 4 7 2 4 1011.1 1010.6 0.2
21/05:00am 26.9 30.7 21.6 72 3.5 NNE 4 6 2 3 1010.7 1010.2 0.2
21/04:30am 27.0 32.1 22.6 77 3.0 CALM 0 4 0 2 1009.8 1009.3 0.2
21/04:00am 27.5 31.8 22.0 72 3.7 SW 2 4 1 2 1009.5 1009.0 0.2
21/03:30am 27.9 31.7 21.0 66 4.6 WNW 2 4 1 2 1009.2 1008.7 0.2
21/03:00am 28.1 32.0 21.1 65 4.7 SW 2 4 1 2 1009.1 1008.6 0.2
21/02:30am 27.9 32.8 22.4 72 3.7 CALM 0 0 0 0 1009.2 1008.7 0.2
21/02:00am 27.9 32.7 22.2 71 3.9 CALM 0 0 0 0 1009.4 1008.9 0.2
21/01:30am 28.1 32.5 22.1 70 4.1 SW 2 4 1 2 1009.7 1009.2 0.2
21/01:00am 27.5 32.3 22.2 73 3.6 CALM 0 0 0 0 1009.8 1009.3 0.2
21/12:30am 27.8 32.6 22.1 71 3.8 CALM 0 0 0 0 1010.2 1009.7 0.2
21/12:00am 28.8 33.0 21.8 66 4.7 NNW 2 2 1 1 1010.6 1010.1 0.2
 
Date/Time
CST
Temp
°C
App
Temp
°C
Dew
Point
°C
Rel
Hum
%
Delta-T
°C
Wind Press
QNH
hPa
Press
MSL
hPa
Rain since
9am
mm
Dir  Spd
km/h
Gust
km/h
Spd
kts
Gust
kts
20/11:30pm 29.2 33.0 20.9 61 5.5 SW 2 4 1 2 1010.7 1010.2 0.2
20/11:00pm 29.7 33.7 21.4 61 5.6 SW 2 4 1 2 1010.9 1010.4 0.2
20/10:30pm 30.0 33.1 20.3 56 6.4 SW 4 6 2 3 1011.1 1010.6 0.2
20/10:00pm 30.4 33.5 20.3 54 6.7 NW 4 7 2 4 1010.9 1010.4 0.2
20/09:30pm 30.9 34.3 20.2 53 7.1 NW 2 6 1 3 1010.8 1010.3 0.2
20/09:00pm 31.7 33.8 19.0 47 8.3 W 6 11 3 6 1010.7 1010.2 0.2
20/08:30pm 32.0 34.2 19.3 47 8.3 WSW 6 11 3 6 1010.4 1009.9 0.2
20/08:00pm 32.3 34.8 19.9 48 8.2 W 6 7 3 4 1010.1 1009.6 0.2
20/07:30pm 32.3 35.1 20.5 49 7.9 W 6 7 3 4 1009.9 1009.4 0.2
20/07:00pm 32.3 34.8 19.9 48 8.2 SSW 6 7 3 4 1009.5 1009.0 0.2

Other Formats:

Comma delimited format used in spreadsheet applications
http://www.bom.gov.au/fwo/IDD60801/IDD60801.94221.axf

JavaScript Object Notation format (JSON) in row-major order
http://www.bom.gov.au/fwo/IDD60801/IDD60801.94221.json